Time;durP1;ratioP1;P1;durP2;ratioP2;P2;SDS_P1;SDS_P2;PMS_P1;PMS_P2;Temp;Humidity;BMP_temperature;BMP_pressure;BME280_temperature;BME280_humidity;BME280_pressure;Samples;Min_cycle;Max_cycle;Signal;HPM_P1;HPM_P2
2023/07/19 00:00:51;;;;;;;28.85;4.28;;;;;;;;;;6176812;23;20052;-59
2023/07/19 00:03:19;;;;;;;27.05;5.07;;;;;;;;;;6175315;23;20128;-59
2023/07/19 00:05:56;;;;;;;30.88;4.40;;;;;;;;;;6177088;23;20083;-58
2023/07/19 00:08:23;;;;;;;38.08;5.05;;;;;;;;;;6175084;23;20021;-58
2023/07/19 00:10:50;;;;;;;27.55;4.57;;;;;;;;;;6175588;23;20087;-58
2023/07/19 00:13:24;;;;;;;22.45;3.85;;;;;;;;;;6176172;23;20025;-58
2023/07/19 00:15:51;;;;;;;23.67;5.07;;;;;;;;;;6176239;23;20029;-57
2023/07/19 00:18:18;;;;;;;25.92;4.03;;;;;;;;;;6176105;23;20088;-59
2023/07/19 00:20:53;;;;;;;36.70;5.25;;;;;;;;;;6177843;23;20032;-62
2023/07/19 00:23:20;;;;;;;28.90;4.05;;;;;;;;;;6175410;23;20017;-62
2023/07/19 00:25:54;;;;;;;25.85;4.57;;;;;;;;;;6177326;23;20021;-62
2023/07/19 00:28:21;;;;;;;31.02;3.72;;;;;;;;;;6175990;23;20079;-61
2023/07/19 00:30:48;;;;;;;32.92;4.05;;;;;;;;;;6174123;23;20080;-62
2023/07/19 00:33:22;;;;;;;24.75;4.30;;;;;;;;;;6176347;23;20484;-62
2023/07/19 00:35:49;;;;;;;35.63;4.53;;;;;;;;;;6176138;23;20462;-58
2023/07/19 00:38:23;;;;;;;24.83;3.78;;;;;;;;;;6175484;23;20076;-57
2023/07/19 00:40:50;;;;;;;24.92;3.67;;;;;;;;;;6176373;23;20424;-58
2023/07/19 00:43:17;;;;;;;26.35;4.30;;;;;;;;;;6177045;23;20437;-58
2023/07/19 00:45:54;;;;;;;29.88;3.35;;;;;;;;;;6174805;23;20087;-59
2023/07/19 00:48:22;;;;;;;27.00;4.45;;;;;;;;;;6176369;23;20021;-59
2023/07/19 00:50:57;;;;;;;29.23;4.43;;;;;;;;;;6176407;23;20095;-58
2023/07/19 00:53:25;;;;;;;25.55;3.92;;;;;;;;;;6174163;23;20087;-58
2023/07/19 00:55:53;;;;;;;32.28;4.90;;;;;;;;;;6175195;23;20031;-59
2023/07/19 00:58:27;;;;;;;22.02;3.75;;;;;;;;;;6174524;23;20084;-59
2023/07/19 01:00:54;;;;;;;27.20;4.35;;;;;;;;;;6176439;23;20467;-58
2023/07/19 01:03:21;;;;;;;22.63;3.35;;;;;;;;;;6175920;23;20084;-58
2023/07/19 01:05:56;;;;;;;35.38;4.07;;;;;;;;;;6176860;23;20025;-58
2023/07/19 01:08:23;;;;;;;29.15;3.75;;;;;;;;;;6148155;23;20393;-57
2023/07/19 01:10:57;;;;;;;23.58;4.47;;;;;;;;;;6176258;23;20025;-57
2023/07/19 01:13:24;;;;;;;19.33;3.60;;;;;;;;;;6147911;23;20025;-61
2023/07/19 01:15:51;;;;;;;24.13;4.25;;;;;;;;;;6173704;23;20087;-57
2023/07/19 01:18:32;;;;;;;32.30;4.50;;;;;;;;;;6174112;23;20021;-58
2023/07/19 01:20:59;;;;;;;28.20;3.90;;;;;;;;;;6176249;23;20025;-57
2023/07/19 01:23:50;;;;;;;26.65;4.00;;;;;;;;;;6172321;23;20115;-58
2023/07/19 01:26:17;;;;;;;22.05;3.97;;;;;;;;;;6176620;23;20029;-58
2023/07/19 01:28:51;;;;;;;38.63;5.20;;;;;;;;;;6149464;23;20028;-58
2023/07/19 01:31:18;;;;;;;22.73;4.32;;;;;;;;;;6176486;23;20507;-57
2023/07/19 01:33:46;;;;;;;;;;;;;;;;;;6175163;23;20380;-57
2023/07/19 01:36:20;;;;;;;22.02;3.35;;;;;;;;;;6177168;23;19916;-57
2023/07/19 01:38:47;;;;;;;30.08;4.22;;;;;;;;;;6174505;23;20523;-57
2023/07/19 01:41:21;;;;;;;31.40;4.55;;;;;;;;;;6174973;23;20053;-59
2023/07/19 01:43:49;;;;;;;30.70;4.00;;;;;;;;;;6173606;23;20031;-61
2023/07/19 01:46:16;;;;;;;30.45;4.00;;;;;;;;;;6175079;23;20017;-62
2023/07/19 01:48:50;;;;;;;29.63;4.68;;;;;;;;;;6149861;23;20029;-62
2023/07/19 01:51:17;;;;;;;30.92;4.60;;;;;;;;;;6173211;23;20021;-62
2023/07/19 01:53:51;;;;;;;24.38;3.38;;;;;;;;;;6174986;23;20435;-62
2023/07/19 01:56:18;;;;;;;24.13;4.22;;;;;;;;;;6148439;23;20108;-62
2023/07/19 01:58:45;;;;;;;29.65;4.63;;;;;;;;;;6172746;23;20032;-61
2023/07/19 02:01:19;;;;;;;24.50;4.10;;;;;;;;;;6175497;23;20424;-61
2023/07/19 02:03:47;;;;;;;32.55;4.13;;;;;;;;;;6174921;23;20340;-61
2023/07/19 02:06:21;;;;;;;22.75;3.88;;;;;;;;;;6176046;23;20028;-62
2023/07/19 02:08:48;;;;;;;30.80;4.72;;;;;;;;;;6175026;23;20025;-62
2023/07/19 02:11:15;;;;;;;33.40;3.72;;;;;;;;;;6174278;23;20717;-61
2023/07/19 02:13:50;;;;;;;22.88;3.40;;;;;;;;;;6174097;23;20021;-59
2023/07/19 02:16:17;;;;;;;23.23;3.53;;;;;;;;;;6175589;23;20025;-60
2023/07/19 02:18:58;;;;;;;36.10;4.30;;;;;;;;;;6173107;23;20021;-59
2023/07/19 02:21:25;;;;;;;23.77;3.63;;;;;;;;;;6174654;23;20381;-59
2023/07/19 02:23:59;;;;;;;34.63;4.57;;;;;;;;;;6171589;23;20084;-59
2023/07/19 02:26:26;;;;;;;;;;;;;;;;;;6175039;23;20095;-59
2023/07/19 02:28:54;;;;;;;28.88;4.28;;;;;;;;;;6175218;23;19920;-58
2023/07/19 02:31:28;;;;;;;25.73;4.07;;;;;;;;;;6175357;23;20021;-57
2023/07/19 02:33:55;;;;;;;30.33;4.07;;;;;;;;;;6175406;23;20024;-57
2023/07/19 02:36:29;;;;;;;22.55;3.63;;;;;;;;;;6176072;23;20083;-58
2023/07/19 02:39:04;;;;;;;27.83;3.50;;;;;;;;;;6170474;23;20017;-58
2023/07/19 02:41:31;;;;;;;25.40;4.10;;;;;;;;;;6174201;23;20886;-58
2023/07/19 02:43:59;;;;;;;39.15;4.30;;;;;;;;;;6174663;23;20025;-58
2023/07/19 02:46:33;;;;;;;31.00;4.57;;;;;;;;;;6173760;23;20017;-58
2023/07/19 02:49:00;;;;;;;29.48;3.75;;;;;;;;;;6174784;23;20362;-63
2023/07/19 02:51:34;;;;;;;26.77;3.75;;;;;;;;;;6173851;23;20488;-57
2023/07/19 02:54:02;;;;;;;;;;;;;;;;;;6174601;23;20021;-58
2023/07/19 02:56:29;;;;;;;31.30;4.97;;;;;;;;;;6175285;23;19916;-58
2023/07/19 02:59:05;;;;;;;31.73;3.80;;;;;;;;;;6174839;23;20111;-57
2023/07/19 03:01:32;;;;;;;38.42;4.00;;;;;;;;;;6174516;23;20029;-57
2023/07/19 03:04:06;;;;;;;28.88;3.72;;;;;;;;;;6174454;23;20021;-58
2023/07/19 03:06:33;;;;;;;29.40;4.22;;;;;;;;;;6174565;23;20025;-57
2023/07/19 03:09:00;;;;;;;31.85;4.18;;;;;;;;;;6171602;23;20060;-62
2023/07/19 03:11:35;;;;;;;29.92;4.25;;;;;;;;;;6174512;23;20174;-57
2023/07/19 03:14:02;;;;;;;24.27;3.45;;;;;;;;;;6173373;23;20079;-58
2023/07/19 03:16:36;;;;;;;29.33;4.50;;;;;;;;;;6175313;23;20476;-57
2023/07/19 03:19:17;;;;;;;35.75;4.68;;;;;;;;;;6142772;23;20088;-57
2023/07/19 03:21:51;;;;;;;24.33;3.83;;;;;;;;;;6146159;23;20033;-56
2023/07/19 03:24:25;;;;;;;19.98;3.58;;;;;;;;;;6144685;23;20022;-57
2023/07/19 03:26:52;;;;;;;25.83;3.80;;;;;;;;;;6146140;23;20029;-57
2023/07/19 03:29:20;;;;;;;35.80;4.95;;;;;;;;;;6144832;23;20021;-57
2023/07/19 03:31:54;;;;;;;29.38;4.43;;;;;;;;;;6144156;23;20062;-58
2023/07/19 03:34:21;;;;;;;20.90;4.00;;;;;;;;;;6143807;23;20089;-56
2023/07/19 03:36:48;;;;;;;24.60;3.97;;;;;;;;;;6143615;23;20100;-61
2023/07/19 03:39:22;;;;;;;27.10;4.90;;;;;;;;;;6145413;23;20085;-62
2023/07/19 03:41:49;;;;;;;23.98;3.85;;;;;;;;;;6141591;23;20026;-62
2023/07/19 03:44:23;;;;;;;17.98;3.28;;;;;;;;;;6144265;23;20025;-62
2023/07/19 03:46:50;;;;;;;18.58;3.65;;;;;;;;;;6145455;23;20072;-62
2023/07/19 03:49:17;;;;;;;34.03;4.22;;;;;;;;;;6145410;23;20022;-62
2023/07/19 03:51:51;;;;;;;22.02;3.47;;;;;;;;;;6143642;23;20028;-62
2023/07/19 03:54:18;;;;;;;29.02;4.53;;;;;;;;;;6146208;23;20069;-62
2023/07/19 03:56:52;;;;;;;23.77;3.67;;;;;;;;;;6146185;23;20393;-62
2023/07/19 03:59:19;;;;;;;;;;;;;;;;;;6145708;23;20022;-62
2023/07/19 04:01:53;;;;;;;20.15;3.10;;;;;;;;;;6145797;23;19983;-62
2023/07/19 04:04:20;;;;;;;21.35;3.33;;;;;;;;;;6145278;23;20056;-49
2023/07/19 04:06:48;;;;;;;;;;;;;;;;;;6147386;23;20109;-58
2023/07/19 04:09:22;;;;;;;18.85;3.47;;;;;;;;;;6146541;23;19924;-58
2023/07/19 04:11:49;;;;;;;19.23;3.00;;;;;;;;;;6145550;23;20029;-59
2023/07/19 04:14:30;;;;;;;20.23;2.92;;;;;;;;;;6146752;23;20022;-58
2023/07/19 04:17:04;;;;;;;18.38;3.40;;;;;;;;;;6149409;23;20076;-58
2023/07/19 04:19:45;;;;;;;16.73;2.80;;;;;;;;;;6175029;23;20021;-58
2023/07/19 04:22:19;;;;;;;11.38;2.55;;;;;;;;;;6175572;23;20025;-62
2023/07/19 04:24:54;;;;;;;21.45;4.30;;;;;;;;;;6177324;23;20480;-62
2023/07/19 04:27:22;;;;;;;11.82;2.22;;;;;;;;;;6176501;23;20220;-63
2023/07/19 04:29:55;;;;;;;16.52;2.78;;;;;;;;;;6175788;23;20021;-63
2023/07/19 04:32:22;;;;;;;9.70;2.25;;;;;;;;;;6174016;23;20059;-58
2023/07/19 04:34:49;;;;;;;17.45;2.53;;;;;;;;;;6176112;23;20021;-58
2023/07/19 04:37:23;;;;;;;16.75;2.53;;;;;;;;;;6177877;23;20067;-58
2023/07/19 04:39:50;;;;;;;14.27;2.53;;;;;;;;;;6176124;23;20028;-58
2023/07/19 04:42:24;;;;;;;18.33;3.55;;;;;;;;;;6176656;23;20489;-57
2023/07/19 04:44:51;;;;;;;12.60;1.95;;;;;;;;;;6176945;23;20028;-58
2023/07/19 04:47:18;;;;;;;15.70;2.88;;;;;;;;;;6174845;23;20020;-59
2023/07/19 04:49:52;;;;;;;8.50;1.92;;;;;;;;;;6174152;23;20403;-58
2023/07/19 04:52:19;;;;;;;11.82;2.78;;;;;;;;;;6174732;23;20539;-62
2023/07/19 04:54:53;;;;;;;12.57;2.35;;;;;;;;;;6175473;23;20029;-62
2023/07/19 04:57:20;;;;;;;19.13;2.97;;;;;;;;;;6175087;23;20024;-62
2023/07/19 04:59:47;;;;;;;12.57;2.45;;;;;;;;;;6175745;23;20025;-61
2023/07/19 05:02:21;;;;;;;10.13;2.33;;;;;;;;;;6177216;23;20025;-58
2023/07/19 05:04:48;;;;;;;;;;;;;;;;;;6175253;23;20028;-59
2023/07/19 05:07:16;;;;;;;12.57;2.53;;;;;;;;;;6174727;23;19949;-58
2023/07/19 05:09:50;;;;;;;13.40;2.70;;;;;;;;;;6174770;23;20087;-58
2023/07/19 05:12:17;;;;;;;12.65;2.40;;;;;;;;;;6174385;23;20021;-58
2023/07/19 05:14:51;;;;;;;12.50;2.15;;;;;;;;;;6174362;23;20025;-58
2023/07/19 05:17:25;;;;;;;11.05;2.13;;;;;;;;;;6176980;23;20017;-58
2023/07/19 05:20:07;;;;;;;17.88;2.50;;;;;;;;;;6176042;23;20424;-58
2023/07/19 05:22:34;;;;;;;17.13;2.50;;;;;;;;;;6175429;23;20021;-57
2023/07/19 05:25:09;;;;;;;10.15;2.33;;;;;;;;;;6175439;23;20100;-57
2023/07/19 05:27:36;;;;;;;10.90;2.40;;;;;;;;;;6174461;23;20021;-58
2023/07/19 05:30:04;;;;;;;14.40;2.22;;;;;;;;;;6173662;23;20033;-59
2023/07/19 05:32:38;;;;;;;18.08;2.50;;;;;;;;;;6173233;23;20489;-63
2023/07/19 05:35:06;;;;;;;9.98;2.33;;;;;;;;;;6174416;23;20174;-63
2023/07/19 05:37:33;;;;;;;9.90;1.98;;;;;;;;;;6176366;23;20133;-63
2023/07/19 05:40:08;;;;;;;15.57;2.35;;;;;;;;;;6175092;23;20500;-62
2023/07/19 05:42:35;;;;;;;13.25;2.40;;;;;;;;;;6174778;23;20029;-63
2023/07/19 05:45:03;;;;;;;12.20;2.35;;;;;;;;;;6175111;23;20029;-63
2023/07/19 05:47:37;;;;;;;10.57;2.13;;;;;;;;;;6176277;23;20024;-62
2023/07/19 05:50:05;;;;;;;9.52;2.30;;;;;;;;;;6173776;23;20041;-60
2023/07/19 05:52:39;;;;;;;7.65;1.77;;;;;;;;;;6173877;23;20021;-62
2023/07/19 05:55:06;;;;;;;;;;;;;;;;;;6176382;23;20035;-62
2023/07/19 05:57:34;;;;;;;14.65;2.58;;;;;;;;;;6173313;23;19979;-50
2023/07/19 06:00:13;;;;;;;10.30;1.85;;;;;;;;;;6150275;23;20021;-57
2023/07/19 06:02:47;;;;;;;7.30;1.95;;;;;;;;;;6173523;23;20025;-58
2023/07/19 06:05:26;;;;;;;13.45;2.20;;;;;;;;;;6171283;23;20047;-58
2023/07/19 06:07:53;;;;;;;10.55;1.92;;;;;;;;;;6173949;23;20032;-58
2023/07/19 06:10:27;;;;;;;;;;;;;;;;;;6175549;23;20021;-58
2023/07/19 06:13:03;;;;;;;10.35;1.85;;;;;;;;;;6173775;23;19920;-58
2023/07/19 06:15:31;;;;;;;4.35;1.42;;;;;;;;;;6174489;23;20104;-59
2023/07/19 06:17:59;;;;;;;8.35;1.65;;;;;;;;;;6175020;23;20025;-59
2023/07/19 06:20:40;;;;;;;7.75;1.88;;;;;;;;;;6169179;23;20260;-59
2023/07/19 06:23:07;;;;;;;11.20;2.15;;;;;;;;;;6169553;23;20025;-58
2023/07/19 06:25:41;;;;;;;5.55;1.27;;;;;;;;;;6173458;23;20222;-59
2023/07/19 06:28:09;;;;;;;8.13;1.95;;;;;;;;;;6174688;23;20029;-62
2023/07/19 06:30:36;;;;;;;8.10;1.60;;;;;;;;;;6171742;23;20036;-58
2023/07/19 06:33:10;;;;;;;5.18;1.40;;;;;;;;;;6174389;23;20325;-58
2023/07/19 06:35:37;;;;;;;5.25;1.40;;;;;;;;;;6175650;23;20021;-58
2023/07/19 06:38:11;;;;;;;4.55;1.85;;;;;;;;;;6173964;23;20087;-58
2023/07/19 06:40:38;;;;;;;13.05;2.20;;;;;;;;;;6175805;23;20021;-58
2023/07/19 06:43:06;;;;;;;10.05;1.80;;;;;;;;;;6174865;23;20021;-58
2023/07/19 06:45:40;;;;;;;10.77;1.77;;;;;;;;;;6177349;23;20068;-58
2023/07/19 06:48:08;;;;;;;5.68;1.50;;;;;;;;;;6173681;23;20087;-57
2023/07/19 06:50:35;;;;;;;;;;;;;;;;;;6176792;23;20032;-58
2023/07/19 06:53:09;;;;;;;7.15;1.38;;;;;;;;;;6176237;23;19916;-58
2023/07/19 06:55:37;;;;;;;7.60;1.50;;;;;;;;;;6176350;23;20091;-57
2023/07/19 06:58:04;;;;;;;5.30;1.42;;;;;;;;;;6174464;23;20385;-52
2023/07/19 07:00:38;;;;;;;5.32;1.58;;;;;;;;;;6174252;23;20079;-51
2023/07/19 07:03:05;;;;;;;8.57;2.10;;;;;;;;;;6172367;23;20489;-49
2023/07/19 07:05:39;;;;;;;9.80;1.65;;;;;;;;;;6172590;23;20064;-47
2023/07/19 07:08:07;;;;;;;6.85;1.63;;;;;;;;;;6174156;23;20080;-51
2023/07/19 07:10:34;;;;;;;13.85;1.73;;;;;;;;;;6172788;23;20025;-54
2023/07/19 07:13:28;;;;;;;10.60;1.40;;;;;;;;;;6171673;23;20031;-51
2023/07/19 07:16:15;;;;;;;7.90;1.23;;;;;;;;;;6173898;23;20025;-48
2023/07/19 07:19:16;;;;;;;4.45;1.25;;;;;;;;;;6172651;23;20665;-48
2023/07/19 07:22:03;;;;;;;4.63;1.30;;;;;;;;;;6175783;23;20032;-52
2023/07/19 07:24:57;;;;;;;7.20;1.70;;;;;;;;;;6173548;23;20020;-58
2023/07/19 07:27:44;;;;;;;6.30;1.40;;;;;;;;;;6175096;23;20080;-58
2023/07/19 07:30:39;;;;;;;5.55;1.25;;;;;;;;;;6175717;23;20025;-59
2023/07/19 07:33:25;;;;;;;5.50;1.52;;;;;;;;;;6176362;23;20099;-58
2023/07/19 07:36:19;;;;;;;6.13;1.33;;;;;;;;;;6177796;23;20031;-58
2023/07/19 07:39:06;;;;;;;5.68;1.40;;;;;;;;;;6175638;23;20391;-58
2023/07/19 07:42:00;;;;;;;12.00;1.77;;;;;;;;;;6176399;23;20025;-58
2023/07/19 07:44:47;;;;;;;4.75;1.40;;;;;;;;;;6177481;23;20060;-58
2023/07/19 07:47:41;;;;;;;4.25;0.88;;;;;;;;;;6178499;23;20020;-59
2023/07/19 07:50:28;;;;;;;2.72;1.00;;;;;;;;;;6176761;23;20025;-58
2023/07/19 07:53:22;;;;;;;6.97;1.50;;;;;;;;;;6177984;23;20025;-62
2023/07/19 07:56:16;;;;;;;4.18;1.20;;;;;;;;;;6178001;23;20559;-58
2023/07/19 07:59:10;;;;;;;5.30;1.27;;;;;;;;;;6177993;23;20492;-58
2023/07/19 08:02:04;;;;;;;5.93;1.20;;;;;;;;;;6174800;23;20033;-58
2023/07/19 08:04:52;;;;;;;3.20;1.15;;;;;;;;;;6175052;23;20020;-59
2023/07/19 08:07:45;;;;;;;3.55;0.90;;;;;;;;;;6174478;23;20029;-58
2023/07/19 08:10:13;;;;;;;4.97;1.35;;;;;;;;;;6175978;23;20037;-58
2023/07/19 08:13:06;;;;;;;4.85;0.98;;;;;;;;;;6177019;23;20029;-58
2023/07/19 08:15:54;;;;;;;8.85;1.13;;;;;;;;;;6177890;23;20424;-58
2023/07/19 08:18:55;;;;;;;3.17;1.10;;;;;;;;;;6174572;23;20025;-59
2023/07/19 08:21:42;;;;;;;3.63;1.00;;;;;;;;;;6171517;23;20488;-58
2023/07/19 08:24:36;;;;;;;6.18;1.10;;;;;;;;;;6175337;23;20476;-59
2023/07/19 08:27:42;;;;;;;4.82;1.02;;;;;;;;;;6177580;23;20488;-59
2023/07/19 08:30:36;;;;;;;10.30;1.30;;;;;;;;;;6177639;23;20021;-58
2023/07/19 08:33:24;;;;;;;8.50;1.33;;;;;;;;;;6177152;23;20032;-50
2023/07/19 08:36:18;;;;;;;7.38;1.23;;;;;;;;;;6177258;23;20091;-48
2023/07/19 08:39:05;;;;;;;2.80;1.05;;;;;;;;;;6177403;23;20049;-49
2023/07/19 08:42:01;;;;;;;5.13;1.30;;;;;;;;;;6177656;23;20028;-49
2023/07/19 08:44:49;;;;;;;4.80;1.08;;;;;;;;;;6175776;23;20021;-48
2023/07/19 08:47:44;;;;;;;3.72;1.20;;;;;;;;;;6176808;23;20076;-64
2023/07/19 08:50:38;;;;;;;6.43;1.40;;;;;;;;;;6177631;23;20025;-63
2023/07/19 08:53:26;;;;;;;5.68;1.33;;;;;;;;;;6175466;23;20028;-63
2023/07/19 08:56:21;;;;;;;6.50;1.33;;;;;;;;;;6177239;23;20075;-64
2023/07/19 08:59:10;;;;;;;5.20;1.17;;;;;;;;;;6175988;23;20052;-63
2023/07/19 09:02:03;;;;;;;2.95;0.93;;;;;;;;;;6177699;23;20033;-62
2023/07/19 09:05:17;;;;;;;5.07;0.77;;;;;;;;;;6175175;23;20506;-62
2023/07/19 09:08:10;;;;;;;4.30;1.10;;;;;;;;;;6176514;23;20432;-63
2023/07/19 09:11:04;;;;;;;3.15;1.20;;;;;;;;;;6176264;23;20037;-63
2023/07/19 09:13:55;;;;;;;2.17;0.93;;;;;;;;;;6176508;23;20021;-63
2023/07/19 09:16:49;;;;;;;4.45;1.55;;;;;;;;;;6176853;23;20025;-58
2023/07/19 09:19:50;;;;;;;5.57;1.20;;;;;;;;;;6176535;23;20043;-58
2023/07/19 09:22:44;;;;;;;5.28;1.58;;;;;;;;;;6177352;23;20060;-58
2023/07/19 09:25:32;;;;;;;6.07;1.42;;;;;;;;;;6175001;23;20067;-59
2023/07/19 09:28:25;;;;;;;5.93;1.40;;;;;;;;;;6177353;23;20021;-57
2023/07/19 09:31:14;;;;;;;6.80;1.38;;;;;;;;;;6174799;23;20083;-57
2023/07/19 09:34:07;;;;;;;1.38;1.10;;;;;;;;;;6170210;23;20020;-58
2023/07/19 09:36:55;;;;;;;4.80;1.33;;;;;;;;;;6176214;23;20021;-57
2023/07/19 09:39:49;;;;;;;2.95;1.00;;;;;;;;;;6173584;23;20021;-57
2023/07/19 09:42:39;;;;;;;5.25;1.25;;;;;;;;;;6176443;23;20024;-57
2023/07/19 09:45:32;;;;;;;1.25;1.00;;;;;;;;;;6176294;23;20080;-62
2023/07/19 09:48:19;;;;;;;3.47;1.30;;;;;;;;;;6177008;23;20025;-62
2023/07/19 09:51:14;;;;;;;4.15;1.17;;;;;;;;;;6177251;23;20241;-62
2023/07/19 09:54:01;;;;;;;4.03;1.33;;;;;;;;;;6172734;23;20096;-58
2023/07/19 09:56:55;;;;;;;4.45;1.50;;;;;;;;;;6175871;23;20620;-62
2023/07/19 09:59:51;;;;;;;5.35;1.33;;;;;;;;;;6174924;23;20519;-62
2023/07/19 10:02:45;;;;;;;6.60;1.80;;;;;;;;;;6175439;23;20021;-61
2023/07/19 10:05:43;;;;;;;5.22;1.60;;;;;;;;;;6174299;23;20021;-62
2023/07/19 10:08:30;;;;;;;5.28;1.48;;;;;;;;;;6174869;23;20029;-62
2023/07/19 10:11:24;;;;;;;7.82;1.85;;;;;;;;;;6177283;23;20103;-60
2023/07/19 10:14:11;;;;;;;5.63;1.80;;;;;;;;;;6175337;23;20432;-62
2023/07/19 10:17:06;;;;;;;7.05;1.58;;;;;;;;;;6176940;23;20488;-62
2023/07/19 10:20:10;;;;;;;4.57;1.67;;;;;;;;;;6173955;23;20432;-62
2023/07/19 10:23:05;;;;;;;6.45;1.70;;;;;;;;;;6175227;23;20079;-58
2023/07/19 10:25:51;;;;;;;9.10;2.28;;;;;;;;;;6173478;23;20025;-58
2023/07/19 10:29:00;;;;;;;4.75;1.60;;;;;;;;;;6174262;23;20480;-59
2023/07/19 10:31:47;;;;;;;8.23;1.98;;;;;;;;;;6172899;23;20052;-58
2023/07/19 10:34:45;;;;;;;6.63;2.10;;;;;;;;;;6174326;23;20361;-58
2023/07/19 10:37:31;;;;;;;7.85;1.90;;;;;;;;;;6175086;23;20088;-58
2023/07/19 10:40:27;;;;;;;8.68;2.28;;;;;;;;;;6174601;23;20025;-59
2023/07/19 10:43:14;;;;;;;5.15;1.95;;;;;;;;;;6170143;23;20572;-58
2023/07/19 10:46:12;;;;;;;5.55;1.70;;;;;;;;;;6173745;23;20377;-58
2023/07/19 10:49:00;;;;;;;8.68;2.45;;;;;;;;;;6172478;23;20049;-58
2023/07/19 10:51:54;;;;;;;7.45;1.55;;;;;;;;;;6173944;23;20104;-58
2023/07/19 10:54:53;;;;;;;4.80;1.80;;;;;;;;;;6172511;23;20021;-59
2023/07/19 10:58:07;;;;;;;4.65;1.63;;;;;;;;;;6169611;23;20021;-58
2023/07/19 11:00:55;;;;;;;4.85;1.88;;;;;;;;;;6173179;23;20033;-58
2023/07/19 11:03:50;;;;;;;8.07;2.08;;;;;;;;;;6175106;23;20021;-58
2023/07/19 11:06:39;;;;;;;11.50;2.05;;;;;;;;;;6174236;23;20024;-59
2023/07/19 11:09:32;;;;;;;5.75;1.90;;;;;;;;;;6175133;23;20079;-59
2023/07/19 11:12:20;;;;;;;11.00;2.35;;;;;;;;;;6176355;23;20076;-59
2023/07/19 11:15:14;;;;;;;6.90;1.80;;;;;;;;;;6175813;23;20025;-58
2023/07/19 11:18:01;;;;;;;6.03;1.90;;;;;;;;;;6175777;23;20029;-58
2023/07/19 11:21:02;;;;;;;5.85;1.75;;;;;;;;;;6175573;23;20071;-57
2023/07/19 11:23:50;;;;;;;5.82;1.65;;;;;;;;;;6175471;23;20382;-58
2023/07/19 11:26:53;;;;;;;4.53;1.65;;;;;;;;;;6176560;23;20424;-56
2023/07/19 11:29:39;;;;;;;9.32;1.70;;;;;;;;;;6171006;23;20025;-58
2023/07/19 11:32:33;;;;;;;3.83;1.48;;;;;;;;;;6175663;23;20489;-58
2023/07/19 11:35:27;;;;;;;6.75;1.52;;;;;;;;;;6174952;23;20309;-58
2023/07/19 11:38:18;;;;;;;5.63;1.65;;;;;;;;;;6177035;23;20033;-59
2023/07/19 11:41:17;;;;;;;8.18;1.50;;;;;;;;;;6175096;23;20025;-59
2023/07/19 11:44:04;;;;;;;6.53;1.50;;;;;;;;;;6175862;23;20103;-59
2023/07/19 11:46:57;;;;;;;4.68;1.52;;;;;;;;;;6176530;23;20021;-59
2023/07/19 11:49:44;;;;;;;7.38;1.77;;;;;;;;;;6175914;23;20788;-59
2023/07/19 11:52:49;;;;;;;6.93;1.40;;;;;;;;;;6175828;23;20096;-58
2023/07/19 11:55:44;;;;;;;4.78;1.33;;;;;;;;;;6176288;23;20021;-58
2023/07/19 11:58:38;;;;;;;8.50;1.77;;;;;;;;;;6174655;23;20021;-58
2023/07/19 12:01:32;;;;;;;4.88;1.40;;;;;;;;;;6173823;23;20025;-58
2023/07/19 12:04:19;;;;;;;5.95;1.50;;;;;;;;;;6175066;23;20293;-58
2023/07/19 12:07:13;;;;;;;3.53;1.30;;;;;;;;;;6176568;23;20116;-62
2023/07/19 12:10:02;;;;;;;5.07;1.30;;;;;;;;;;6175260;23;20025;-62
2023/07/19 12:12:57;;;;;;;4.75;1.42;;;;;;;;;;6175867;23;20025;-62
2023/07/19 12:15:43;;;;;;;5.45;1.63;;;;;;;;;;6175777;23;20083;-58
2023/07/19 12:18:50;;;;;;;6.55;1.88;;;;;;;;;;6175370;23;20079;-61
2023/07/19 12:21:44;;;;;;;5.45;1.27;;;;;;;;;;6176069;23;20028;-63
2023/07/19 12:24:40;;;;;;;6.25;1.25;;;;;;;;;;6175647;23;20028;-62
2023/07/19 12:27:28;;;;;;;9.70;1.63;;;;;;;;;;6176546;23;20021;-63
2023/07/19 12:30:22;;;;;;;5.70;1.45;;;;;;;;;;6176123;23;20029;-63
2023/07/19 12:33:08;;;;;;;7.47;1.70;;;;;;;;;;6176325;23;20024;-62
2023/07/19 12:36:02;;;;;;;4.95;1.50;;;;;;;;;;6174314;23;20024;-58
2023/07/19 12:38:50;;;;;;;7.45;1.70;;;;;;;;;;6177058;23;20215;-57
2023/07/19 12:41:46;;;;;;;4.60;1.52;;;;;;;;;;6173761;23;20021;-57
2023/07/19 12:44:41;;;;;;;5.65;1.55;;;;;;;;;;6174599;23;20044;-58
2023/07/19 12:47:27;;;;;;;9.23;1.33;;;;;;;;;;6173885;23;20025;-56
2023/07/19 12:50:21;;;;;;;5.38;1.33;;;;;;;;;;6174265;23;20021;-57
2023/07/19 12:53:08;;;;;;;2.67;1.27;;;;;;;;;;6173747;23;20021;-57
2023/07/19 12:56:05;;;;;;;6.22;1.58;;;;;;;;;;6176307;23;20032;-57
2023/07/19 12:58:59;;;;;;;7.20;1.52;;;;;;;;;;6175621;23;20551;-57
2023/07/19 13:01:47;;;;;;;3.70;1.45;;;;;;;;;;6173899;23;20021;-57
2023/07/19 13:04:40;;;;;;;3.30;1.35;;;;;;;;;;6174209;23;20392;-62
2023/07/19 13:07:28;;;;;;;5.40;1.63;;;;;;;;;;6175820;23;20273;-61
2023/07/19 13:10:21;;;;;;;4.55;1.35;;;;;;;;;;6175588;23;20021;-63
2023/07/19 13:13:09;;;;;;;4.75;1.25;;;;;;;;;;6174089;23;20100;-53
2023/07/19 13:16:03;;;;;;;7.57;1.75;;;;;;;;;;6175441;23;20484;-57
2023/07/19 13:18:57;;;;;;;3.55;1.10;;;;;;;;;;6175786;23;20091;-57
2023/07/19 13:21:51;;;;;;;5.38;1.70;;;;;;;;;;6169786;23;20560;-57
2023/07/19 13:24:38;;;;;;;8.63;1.95;;;;;;;;;;6173356;23;20087;-57
2023/07/19 13:27:34;;;;;;;6.68;1.42;;;;;;;;;;6174924;23;20489;-57
2023/07/19 13:30:20;;;;;;;5.00;1.38;;;;;;;;;;6172634;23;20021;-57
2023/07/19 13:33:14;;;;;;;3.25;1.17;;;;;;;;;;6174991;23;20088;-58
2023/07/19 13:36:02;;;;;;;9.88;1.73;;;;;;;;;;6174837;23;20083;-58
2023/07/19 13:38:56;;;;;;;5.68;1.70;;;;;;;;;;6173910;23;20021;-58
2023/07/19 13:41:50;;;;;;;4.93;1.60;;;;;;;;;;6174790;23;20040;-58
2023/07/19 13:44:37;;;;;;;8.90;1.92;;;;;;;;;;6174333;23;20025;-57
2023/07/19 13:47:31;;;;;;;4.68;1.63;;;;;;;;;;6173900;23;20108;-58
2023/07/19 13:50:19;;;;;;;5.93;1.52;;;;;;;;;;6173274;23;20380;-58
2023/07/19 13:53:12;;;;;;;8.15;1.58;;;;;;;;;;6173866;23;20028;-58
2023/07/19 13:56:02;;;;;;;5.47;1.65;;;;;;;;;;6174771;23;20044;-57
2023/07/19 13:58:55;;;;;;;6.07;2.00;;;;;;;;;;6175402;23;20032;-57
2023/07/19 14:01:43;;;;;;;7.40;1.45;;;;;;;;;;6175746;23;20052;-62
2023/07/19 14:04:37;;;;;;;9.88;1.60;;;;;;;;;;6173105;23;20025;-62
2023/07/19 14:07:24;;;;;;;7.70;1.83;;;;;;;;;;6174491;23;20571;-62
2023/07/19 14:10:17;;;;;;;9.23;2.17;;;;;;;;;;6174050;23;20032;-58
2023/07/19 14:13:05;;;;;;;5.63;1.65;;;;;;;;;;6175095;23;20032;-57
2023/07/19 14:15:59;;;;;;;5.03;1.65;;;;;;;;;;6172335;23;20099;-57
2023/07/19 14:18:53;;;;;;;7.28;1.70;;;;;;;;;;6172260;23;20017;-58
2023/07/19 14:21:54;;;;;;;3.80;1.27;;;;;;;;;;6171861;23;20025;-57
2023/07/19 14:24:41;;;;;;;6.97;1.45;;;;;;;;;;6173367;23;20025;-57
2023/07/19 14:27:40;;;;;;;7.35;1.60;;;;;;;;;;6170379;23;20353;-57
2023/07/19 14:30:32;;;;;;;7.95;1.42;;;;;;;;;;6170520;23;20024;-58
2023/07/19 14:33:21;;;;;;;4.90;1.95;;;;;;;;;;6173093;23;20546;-58
2023/07/19 14:36:14;;;;;;;7.43;1.80;;;;;;;;;;6153244;23;20025;-59
2023/07/19 14:39:00;;;;;;;10.27;1.70;;;;;;;;;;6172939;23;20485;-49
2023/07/19 14:41:54;;;;;;;7.25;1.45;;;;;;;;;;6173085;23;20025;-51
2023/07/19 14:44:41;;;;;;;10.77;2.10;;;;;;;;;;6172307;23;20072;-52
2023/07/19 14:47:37;;;;;;;8.23;1.80;;;;;;;;;;6173250;23;20021;-52
2023/07/19 14:50:22;;;;;;;6.95;1.92;;;;;;;;;;6172948;23;20028;-52
2023/07/19 14:53:22;;;;;;;8.98;2.08;;;;;;;;;;6172700;23;20021;-52
2023/07/19 14:56:20;;;;;;;9.30;1.80;;;;;;;;;;6172543;23;20021;-51
2023/07/19 14:59:13;;;;;;;9.65;1.90;;;;;;;;;;6173972;23;20515;-58
2023/07/19 15:02:00;;;;;;;9.13;1.83;;;;;;;;;;6172513;23;20036;-58
2023/07/19 15:04:58;;;;;;;4.88;1.42;;;;;;;;;;6172900;23;20064;-58
2023/07/19 15:07:50;;;;;;;3.97;1.88;;;;;;;;;;6173449;23;20033;-53
2023/07/19 15:10:38;;;;;;;5.80;1.23;;;;;;;;;;6171102;23;20025;-62
2023/07/19 15:13:32;;;;;;;5.35;1.58;;;;;;;;;;6171180;23;20021;-62
2023/07/19 15:16:25;;;;;;;6.05;1.75;;;;;;;;;;6172194;23;20027;-61
2023/07/19 15:19:19;;;;;;;8.25;1.38;;;;;;;;;;6172087;23;20029;-62
2023/07/19 15:22:13;;;;;;;7.03;1.73;;;;;;;;;;6173470;23;20083;-62
2023/07/19 15:25:00;;;;;;;8.32;1.75;;;;;;;;;;6173570;23;20029;-59
2023/07/19 15:27:54;;;;;;;10.70;2.10;;;;;;;;;;6173622;23;20028;-59
2023/07/19 15:30:56;;;;;;;4.30;1.38;;;;;;;;;;6173000;23;20441;-59
2023/07/19 15:33:50;;;;;;;6.97;1.60;;;;;;;;;;6176059;23;20473;-58
2023/07/19 15:36:37;;;;;;;8.80;1.58;;;;;;;;;;6173247;23;20024;-62
2023/07/19 15:39:31;;;;;;;5.35;1.20;;;;;;;;;;6168349;23;20025;-59
2023/07/19 15:42:17;;;;;;;6.20;1.83;;;;;;;;;;6174325;23;20488;-59
2023/07/19 15:45:11;;;;;;;6.72;1.65;;;;;;;;;;6175195;23;20032;-58
2023/07/19 15:47:59;;;;;;;5.60;1.58;;;;;;;;;;6173954;23;20025;-60
2023/07/19 15:51:14;;;;;;;5.95;1.70;;;;;;;;;;6172979;23;20556;-58
2023/07/19 15:54:08;;;;;;;8.02;1.85;;;;;;;;;;6178808;23;20095;-60
2023/07/19 15:57:02;;;;;;;8.77;1.88;;;;;;;;;;6176947;23;20511;-60
2023/07/19 15:59:49;;;;;;;5.85;1.70;;;;;;;;;;6176553;23;20559;-60
2023/07/19 16:02:44;;;;;;;7.32;1.73;;;;;;;;;;6177606;23;20020;-60
2023/07/19 16:05:31;;;;;;;6.30;1.60;;;;;;;;;;6177583;23;20353;-59
2023/07/19 16:08:25;;;;;;;10.30;1.63;;;;;;;;;;6177771;23;20603;-62